sensor_id;sensor_type;location;lat;lon;timestamp;temperature;humidity
4828;DHT22;2428;48.732;9.148;2023-03-23T00:01:13;13.10;99.90
4828;DHT22;2428;48.732;9.148;2023-03-23T00:03:40;13.10;99.90
4828;DHT22;2428;48.732;9.148;2023-03-23T00:06:07;13.10;99.90
4828;DHT22;2428;48.732;9.148;2023-03-23T00:08:34;13.10;99.90
4828;DHT22;2428;48.732;9.148;2023-03-23T00:11:05;13.10;99.90
4828;DHT22;2428;48.732;9.148;2023-03-23T00:13:33;13.10;99.90
4828;DHT22;2428;48.732;9.148;2023-03-23T00:15:58;13.10;99.90
4828;DHT22;2428;48.732;9.148;2023-03-23T00:18:24;13.10;99.90
4828;DHT22;2428;48.732;9.148;2023-03-23T00:20:56;13.10;99.90
4828;DHT22;2428;48.732;9.148;2023-03-23T00:23:25;13.00;99.90
4828;DHT22;2428;48.732;9.148;2023-03-23T00:25:54;13.10;99.90
4828;DHT22;2428;48.732;9.148;2023-03-23T00:28:24;13.00;99.90
4828;DHT22;2428;48.732;9.148;2023-03-23T00:31:04;13.00;99.90
4828;DHT22;2428;48.732;9.148;2023-03-23T00:33:32;13.00;99.90
4828;DHT22;2428;48.732;9.148;2023-03-23T00:36:07;13.00;99.90
4828;DHT22;2428;48.732;9.148;2023-03-23T00:38:34;13.00;99.90
4828;DHT22;2428;48.732;9.148;2023-03-23T00:41:00;12.90;99.90
4828;DHT22;2428;48.732;9.148;2023-03-23T00:43:28;12.90;99.90
4828;DHT22;2428;48.732;9.148;2023-03-23T00:45:55;12.90;99.90
4828;DHT22;2428;48.732;9.148;2023-03-23T00:48:21;12.90;99.90
4828;DHT22;2428;48.732;9.148;2023-03-23T00:50:47;12.80;99.90
4828;DHT22;2428;48.732;9.148;2023-03-23T00:53:14;12.80;99.90
4828;DHT22;2428;48.732;9.148;2023-03-23T00:55:41;12.80;99.90
4828;DHT22;2428;48.732;9.148;2023-03-23T00:58:08;12.80;99.90
4828;DHT22;2428;48.732;9.148;2023-03-23T01:00:33;12.80;99.90
4828;DHT22;2428;48.732;9.148;2023-03-23T01:02:59;12.80;99.90
4828;DHT22;2428;48.732;9.148;2023-03-23T01:05:24;12.80;99.90
4828;DHT22;2428;48.732;9.148;2023-03-23T01:07:58;12.80;99.90
4828;DHT22;2428;48.732;9.148;2023-03-23T01:10:24;12.80;99.90
4828;DHT22;2428;48.732;9.148;2023-03-23T01:12:52;12.80;99.90
4828;DHT22;2428;48.732;9.148;2023-03-23T01:15:21;12.90;99.90
4828;DHT22;2428;48.732;9.148;2023-03-23T01:17:47;12.80;99.90
4828;DHT22;2428;48.732;9.148;2023-03-23T01:20:14;12.80;99.90
4828;DHT22;2428;48.732;9.148;2023-03-23T01:22:41;12.80;99.90
4828;DHT22;2428;48.732;9.148;2023-03-23T01:25:08;12.80;99.90
4828;DHT22;2428;48.732;9.148;2023-03-23T01:27:34;12.80;99.90
4828;DHT22;2428;48.732;9.148;2023-03-23T01:30:00;12.80;99.90
4828;DHT22;2428;48.732;9.148;2023-03-23T01:32:26;12.80;99.90
4828;DHT22;2428;48.732;9.148;2023-03-23T01:34:51;12.70;99.90
4828;DHT22;2428;48.732;9.148;2023-03-23T01:37:17;12.70;99.90
4828;DHT22;2428;48.732;9.148;2023-03-23T01:39:43;12.70;99.90
4828;DHT22;2428;48.732;9.148;2023-03-23T01:42:09;12.60;99.90
4828;DHT22;2428;48.732;9.148;2023-03-23T01:47:01;12.60;99.90
4828;DHT22;2428;48.732;9.148;2023-03-23T01:49:31;12.70;99.90
4828;DHT22;2428;48.732;9.148;2023-03-23T01:52:05;12.60;99.90
4828;DHT22;2428;48.732;9.148;2023-03-23T01:54:34;12.60;99.90
4828;DHT22;2428;48.732;9.148;2023-03-23T01:57:07;12.60;99.90
4828;DHT22;2428;48.732;9.148;2023-03-23T01:59:35;12.70;99.90
4828;DHT22;2428;48.732;9.148;2023-03-23T02:02:02;12.60;99.90
4828;DHT22;2428;48.732;9.148;2023-03-23T02:04:28;12.70;99.90
4828;DHT22;2428;48.732;9.148;2023-03-23T02:06:56;12.70;99.90
4828;DHT22;2428;48.732;9.148;2023-03-23T02:09:26;12.70;99.90
4828;DHT22;2428;48.732;9.148;2023-03-23T02:11:53;12.60;99.90
4828;DHT22;2428;48.732;9.148;2023-03-23T02:14:19;12.60;99.90
4828;DHT22;2428;48.732;9.148;2023-03-23T02:22:41;12.70;99.90
4828;DHT22;2428;48.732;9.148;2023-03-23T02:27:45;12.70;99.90
4828;DHT22;2428;48.732;9.148;2023-03-23T02:30:24;12.70;99.90
4828;DHT22;2428;48.732;9.148;2023-03-23T02:36:00;12.70;99.90
4828;DHT22;2428;48.732;9.148;2023-03-23T02:38:35;12.70;99.90
4828;DHT22;2428;48.732;9.148;2023-03-23T02:41:04;12.70;99.90
4828;DHT22;2428;48.732;9.148;2023-03-23T02:43:35;12.70;99.90
4828;DHT22;2428;48.732;9.148;2023-03-23T02:46:05;12.70;99.90
4828;DHT22;2428;48.732;9.148;2023-03-23T02:48:33;12.70;99.90
4828;DHT22;2428;48.732;9.148;2023-03-23T02:51:00;12.60;99.90
4828;DHT22;2428;48.732;9.148;2023-03-23T02:53:28;12.70;99.90
4828;DHT22;2428;48.732;9.148;2023-03-23T02:55:56;12.60;99.90
4828;DHT22;2428;48.732;9.148;2023-03-23T02:58:22;12.70;99.90
4828;DHT22;2428;48.732;9.148;2023-03-23T03:00:51;12.60;99.90
4828;DHT22;2428;48.732;9.148;2023-03-23T03:03:23;12.60;99.90
4828;DHT22;2428;48.732;9.148;2023-03-23T03:06:03;12.60;99.90
4828;DHT22;2428;48.732;9.148;2023-03-23T03:11:18;12.60;99.90
4828;DHT22;2428;48.732;9.148;2023-03-23T03:16:51;12.60;99.90
4828;DHT22;2428;48.732;9.148;2023-03-23T03:19:23;12.60;99.90
4828;DHT22;2428;48.732;9.148;2023-03-23T03:21:52;12.60;99.90
4828;DHT22;2428;48.732;9.148;2023-03-23T03:24:20;12.60;99.90
4828;DHT22;2428;48.732;9.148;2023-03-23T03:26:47;12.60;99.90
4828;DHT22;2428;48.732;9.148;2023-03-23T03:29:18;12.60;99.90
4828;DHT22;2428;48.732;9.148;2023-03-23T03:31:46;12.60;99.90
4828;DHT22;2428;48.732;9.148;2023-03-23T03:34:14;12.60;99.90
4828;DHT22;2428;48.732;9.148;2023-03-23T03:36:44;12.60;99.90
4828;DHT22;2428;48.732;9.148;2023-03-23T03:39:12;12.60;99.90
4828;DHT22;2428;48.732;9.148;2023-03-23T03:41:38;12.60;99.90
4828;DHT22;2428;48.732;9.148;2023-03-23T03:44:05;12.60;99.90
4828;DHT22;2428;48.732;9.148;2023-03-23T03:46:32;12.70;99.90
4828;DHT22;2428;48.732;9.148;2023-03-23T03:49:02;12.60;99.90
4828;DHT22;2428;48.732;9.148;2023-03-23T03:51:29;12.60;99.90
4828;DHT22;2428;48.732;9.148;2023-03-23T03:53:55;12.60;99.90
4828;DHT22;2428;48.732;9.148;2023-03-23T03:56:21;12.60;99.90
4828;DHT22;2428;48.732;9.148;2023-03-23T03:58:51;12.60;99.90
4828;DHT22;2428;48.732;9.148;2023-03-23T04:01:18;12.60;99.90
4828;DHT22;2428;48.732;9.148;2023-03-23T04:03:46;12.60;99.90
4828;DHT22;2428;48.732;9.148;2023-03-23T04:06:12;12.70;99.90
4828;DHT22;2428;48.732;9.148;2023-03-23T04:08:38;12.70;99.90
4828;DHT22;2428;48.732;9.148;2023-03-23T04:11:10;12.70;99.90
4828;DHT22;2428;48.732;9.148;2023-03-23T04:13:37;12.60;99.90
4828;DHT22;2428;48.732;9.148;2023-03-23T04:16:03;12.60;99.90
4828;DHT22;2428;48.732;9.148;2023-03-23T04:18:29;12.60;99.90
4828;DHT22;2428;48.732;9.148;2023-03-23T04:20:57;12.70;99.90
4828;DHT22;2428;48.732;9.148;2023-03-23T04:23:24;12.60;99.90
4828;DHT22;2428;48.732;9.148;2023-03-23T04:25:50;12.70;99.90
4828;DHT22;2428;48.732;9.148;2023-03-23T04:28:18;12.70;99.90
4828;DHT22;2428;48.732;9.148;2023-03-23T04:30:44;12.70;99.90
4828;DHT22;2428;48.732;9.148;2023-03-23T04:33:11;12.70;99.90
4828;DHT22;2428;48.732;9.148;2023-03-23T04:35:41;12.70;99.90
4828;DHT22;2428;48.732;9.148;2023-03-23T04:38:07;12.80;99.90
4828;DHT22;2428;48.732;9.148;2023-03-23T04:40:38;12.70;99.90
4828;DHT22;2428;48.732;9.148;2023-03-23T04:43:04;12.70;99.90
4828;DHT22;2428;48.732;9.148;2023-03-23T04:45:32;12.70;99.90
4828;DHT22;2428;48.732;9.148;2023-03-23T04:47:58;12.70;99.90
4828;DHT22;2428;48.732;9.148;2023-03-23T04:50:29;12.80;99.90
4828;DHT22;2428;48.732;9.148;2023-03-23T04:53:00;12.80;99.90
4828;DHT22;2428;48.732;9.148;2023-03-23T04:55:30;12.80;99.90
4828;DHT22;2428;48.732;9.148;2023-03-23T04:57:56;12.80;99.90
4828;DHT22;2428;48.732;9.148;2023-03-23T05:00:25;12.80;99.90
4828;DHT22;2428;48.732;9.148;2023-03-23T05:02:51;12.90;99.90
4828;DHT22;2428;48.732;9.148;2023-03-23T05:05:18;12.90;99.90
4828;DHT22;2428;48.732;9.148;2023-03-23T05:07:44;12.90;99.90
4828;DHT22;2428;48.732;9.148;2023-03-23T05:10:11;12.90;99.90
4828;DHT22;2428;48.732;9.148;2023-03-23T05:12:38;12.80;99.90
4828;DHT22;2428;48.732;9.148;2023-03-23T05:15:05;12.90;99.90
4828;DHT22;2428;48.732;9.148;2023-03-23T05:17:31;12.90;99.90
4828;DHT22;2428;48.732;9.148;2023-03-23T05:19:57;13.00;99.90
4828;DHT22;2428;48.732;9.148;2023-03-23T05:22:25;13.00;99.90
4828;DHT22;2428;48.732;9.148;2023-03-23T05:24:51;13.00;99.90
4828;DHT22;2428;48.732;9.148;2023-03-23T05:27:18;13.00;99.90
4828;DHT22;2428;48.732;9.148;2023-03-23T05:29:45;13.00;99.90
4828;DHT22;2428;48.732;9.148;2023-03-23T05:32:14;13.00;99.90
4828;DHT22;2428;48.732;9.148;2023-03-23T05:34:40;13.00;99.90
4828;DHT22;2428;48.732;9.148;2023-03-23T05:37:05;13.10;99.90
4828;DHT22;2428;48.732;9.148;2023-03-23T05:39:31;13.00;99.90
4828;DHT22;2428;48.732;9.148;2023-03-23T05:41:58;13.00;99.90
4828;DHT22;2428;48.732;9.148;2023-03-23T05:44:23;13.00;99.90
4828;DHT22;2428;48.732;9.148;2023-03-23T05:46:49;13.10;99.90
4828;DHT22;2428;48.732;9.148;2023-03-23T05:49:15;13.00;99.90
4828;DHT22;2428;48.732;9.148;2023-03-23T05:51:42;13.10;99.90
4828;DHT22;2428;48.732;9.148;2023-03-23T05:54:08;13.00;99.90
4828;DHT22;2428;48.732;9.148;2023-03-23T05:56:33;13.00;99.90
4828;DHT22;2428;48.732;9.148;2023-03-23T05:58:59;13.10;99.90
4828;DHT22;2428;48.732;9.148;2023-03-23T06:01:25;13.10;99.90
4828;DHT22;2428;48.732;9.148;2023-03-23T06:03:51;13.10;99.90
4828;DHT22;2428;48.732;9.148;2023-03-23T06:06:20;13.10;99.90
4828;DHT22;2428;48.732;9.148;2023-03-23T06:08:46;13.10;99.90
4828;DHT22;2428;48.732;9.148;2023-03-23T06:11:12;13.10;99.90
4828;DHT22;2428;48.732;9.148;2023-03-23T06:13:38;13.20;99.90
4828;DHT22;2428;48.732;9.148;2023-03-23T06:16:04;13.20;99.90
4828;DHT22;2428;48.732;9.148;2023-03-23T06:18:30;13.20;99.90
4828;DHT22;2428;48.732;9.148;2023-03-23T06:20:59;13.30;99.90
4828;DHT22;2428;48.732;9.148;2023-03-23T06:23:25;13.30;99.90
4828;DHT22;2428;48.732;9.148;2023-03-23T06:25:54;13.20;99.90
4828;DHT22;2428;48.732;9.148;2023-03-23T06:28:20;13.20;99.90
4828;DHT22;2428;48.732;9.148;2023-03-23T06:30:46;13.20;99.90
4828;DHT22;2428;48.732;9.148;2023-03-23T06:33:11;13.20;99.90
4828;DHT22;2428;48.732;9.148;2023-03-23T06:35:37;13.30;99.90
4828;DHT22;2428;48.732;9.148;2023-03-23T06:38:03;13.30;99.90
4828;DHT22;2428;48.732;9.148;2023-03-23T06:40:29;13.30;99.90
4828;DHT22;2428;48.732;9.148;2023-03-23T06:42:57;13.30;99.90
4828;DHT22;2428;48.732;9.148;2023-03-23T06:45:24;13.30;99.90
4828;DHT22;2428;48.732;9.148;2023-03-23T06:47:50;13.30;99.90
4828;DHT22;2428;48.732;9.148;2023-03-23T06:50:16;13.30;99.90
4828;DHT22;2428;48.732;9.148;2023-03-23T06:52:48;13.30;99.90
4828;DHT22;2428;48.732;9.148;2023-03-23T06:55:15;13.40;99.90
4828;DHT22;2428;48.732;9.148;2023-03-23T06:57:41;13.50;99.90
4828;DHT22;2428;48.732;9.148;2023-03-23T07:00:08;13.50;99.90
4828;DHT22;2428;48.732;9.148;2023-03-23T07:02:37;13.50;99.90
4828;DHT22;2428;48.732;9.148;2023-03-23T07:05:03;13.60;99.90
4828;DHT22;2428;48.732;9.148;2023-03-23T07:07:29;13.60;99.90
4828;DHT22;2428;48.732;9.148;2023-03-23T07:09:55;13.60;99.90
4828;DHT22;2428;48.732;9.148;2023-03-23T07:12:20;13.60;99.90
4828;DHT22;2428;48.732;9.148;2023-03-23T07:14:47;13.60;99.90
4828;DHT22;2428;48.732;9.148;2023-03-23T07:17:13;13.60;99.90
4828;DHT22;2428;48.732;9.148;2023-03-23T07:19:39;13.70;99.90
4828;DHT22;2428;48.732;9.148;2023-03-23T07:22:06;13.70;99.90
4828;DHT22;2428;48.732;9.148;2023-03-23T07:24:33;13.70;99.90
4828;DHT22;2428;48.732;9.148;2023-03-23T07:26:59;13.70;99.90
4828;DHT22;2428;48.732;9.148;2023-03-23T07:29:24;13.70;99.90
4828;DHT22;2428;48.732;9.148;2023-03-23T07:31:50;13.70;99.90
4828;DHT22;2428;48.732;9.148;2023-03-23T07:34:21;13.70;99.90
4828;DHT22;2428;48.732;9.148;2023-03-23T07:36:47;13.70;99.90
4828;DHT22;2428;48.732;9.148;2023-03-23T07:39:14;13.70;99.90
4828;DHT22;2428;48.732;9.148;2023-03-23T07:41:39;13.70;99.90
4828;DHT22;2428;48.732;9.148;2023-03-23T07:44:07;13.70;99.90
4828;DHT22;2428;48.732;9.148;2023-03-23T07:46:33;13.70;99.90
4828;DHT22;2428;48.732;9.148;2023-03-23T07:48:59;13.70;99.90
4828;DHT22;2428;48.732;9.148;2023-03-23T07:51:25;13.80;99.90
4828;DHT22;2428;48.732;9.148;2023-03-23T07:53:51;13.80;99.90
4828;DHT22;2428;48.732;9.148;2023-03-23T07:56:17;13.80;99.90
4828;DHT22;2428;48.732;9.148;2023-03-23T07:58:48;13.90;99.90
4828;DHT22;2428;48.732;9.148;2023-03-23T08:01:14;13.90;99.90
4828;DHT22;2428;48.732;9.148;2023-03-23T08:03:39;14.00;99.90
4828;DHT22;2428;48.732;9.148;2023-03-23T08:06:05;14.00;99.90
4828;DHT22;2428;48.732;9.148;2023-03-23T08:08:31;14.00;99.90
4828;DHT22;2428;48.732;9.148;2023-03-23T08:10:58;14.00;99.90
4828;DHT22;2428;48.732;9.148;2023-03-23T08:13:24;14.00;99.90
4828;DHT22;2428;48.732;9.148;2023-03-23T08:15:50;14.10;99.90
4828;DHT22;2428;48.732;9.148;2023-03-23T08:18:17;14.10;99.90
4828;DHT22;2428;48.732;9.148;2023-03-23T08:20:44;14.10;99.90
4828;DHT22;2428;48.732;9.148;2023-03-23T08:23:13;14.10;99.90
4828;DHT22;2428;48.732;9.148;2023-03-23T08:25:41;14.10;99.90
4828;DHT22;2428;48.732;9.148;2023-03-23T08:28:08;14.20;99.90
4828;DHT22;2428;48.732;9.148;2023-03-23T08:30:34;14.30;99.90
4828;DHT22;2428;48.732;9.148;2023-03-23T08:33:03;14.30;99.90
4828;DHT22;2428;48.732;9.148;2023-03-23T08:35:30;14.30;99.90
4828;DHT22;2428;48.732;9.148;2023-03-23T08:37:55;14.30;99.90
4828;DHT22;2428;48.732;9.148;2023-03-23T08:40:23;14.30;99.90
4828;DHT22;2428;48.732;9.148;2023-03-23T08:42:50;14.30;99.90
4828;DHT22;2428;48.732;9.148;2023-03-23T08:45:20;14.30;99.90
4828;DHT22;2428;48.732;9.148;2023-03-23T08:47:46;14.30;99.90
4828;DHT22;2428;48.732;9.148;2023-03-23T08:50:18;14.20;99.90
4828;DHT22;2428;48.732;9.148;2023-03-23T08:52:44;14.20;99.90
4828;DHT22;2428;48.732;9.148;2023-03-23T08:55:11;14.10;99.90
4828;DHT22;2428;48.732;9.148;2023-03-23T08:57:37;14.10;99.90
4828;DHT22;2428;48.732;9.148;2023-03-23T09:00:05;14.20;99.90
4828;DHT22;2428;48.732;9.148;2023-03-23T09:02:41;14.20;99.90
4828;DHT22;2428;48.732;9.148;2023-03-23T09:05:08;14.30;99.90
4828;DHT22;2428;48.732;9.148;2023-03-23T09:07:35;14.30;99.90
4828;DHT22;2428;48.732;9.148;2023-03-23T09:10:01;14.50;99.90
4828;DHT22;2428;48.732;9.148;2023-03-23T09:12:27;14.50;99.90
4828;DHT22;2428;48.732;9.148;2023-03-23T09:14:53;14.50;99.90
4828;DHT22;2428;48.732;9.148;2023-03-23T09:17:18;14.50;99.90
4828;DHT22;2428;48.732;9.148;2023-03-23T09:19:44;14.50;99.90
4828;DHT22;2428;48.732;9.148;2023-03-23T09:22:10;14.50;99.90
4828;DHT22;2428;48.732;9.148;2023-03-23T09:24:35;14.50;99.90
4828;DHT22;2428;48.732;9.148;2023-03-23T09:27:01;14.60;99.90
4828;DHT22;2428;48.732;9.148;2023-03-23T09:29:27;14.60;99.90
4828;DHT22;2428;48.732;9.148;2023-03-23T09:31:54;14.70;99.90
4828;DHT22;2428;48.732;9.148;2023-03-23T09:34:21;14.70;99.90
4828;DHT22;2428;48.732;9.148;2023-03-23T09:36:47;14.60;99.90
4828;DHT22;2428;48.732;9.148;2023-03-23T09:39:13;14.60;99.90
4828;DHT22;2428;48.732;9.148;2023-03-23T09:44:48;14.60;99.90
4828;DHT22;2428;48.732;9.148;2023-03-23T09:50:17;14.60;99.90
4828;DHT22;2428;48.732;9.148;2023-03-23T09:52:57;14.50;99.90
4828;DHT22;2428;48.732;9.148;2023-03-23T09:55:24;14.50;99.90
4828;DHT22;2428;48.732;9.148;2023-03-23T09:58:09;14.50;99.90
4828;DHT22;2428;48.732;9.148;2023-03-23T10:01:21;14.40;99.90
4828;DHT22;2428;48.732;9.148;2023-03-23T10:03:46;14.40;99.90
4828;DHT22;2428;48.732;9.148;2023-03-23T10:06:15;14.40;99.90
4828;DHT22;2428;48.732;9.148;2023-03-23T10:08:57;14.50;99.90
4828;DHT22;2428;48.732;9.148;2023-03-23T10:17:26;14.90;99.90
4828;DHT22;2428;48.732;9.148;2023-03-23T10:22:34;15.20;99.90
4828;DHT22;2428;48.732;9.148;2023-03-23T10:25:15;15.30;99.90
4828;DHT22;2428;48.732;9.148;2023-03-23T10:30:28;15.10;99.90
4828;DHT22;2428;48.732;9.148;2023-03-23T10:32:56;15.10;99.90
4828;DHT22;2428;48.732;9.148;2023-03-23T10:35:30;15.00;99.90
4828;DHT22;2428;48.732;9.148;2023-03-23T10:38:18;15.10;99.90
4828;DHT22;2428;48.732;9.148;2023-03-23T10:41:11;15.00;99.90
4828;DHT22;2428;48.732;9.148;2023-03-23T10:43:38;14.90;99.90
4828;DHT22;2428;48.732;9.148;2023-03-23T10:49:22;15.10;99.90
4828;DHT22;2428;48.732;9.148;2023-03-23T10:54:51;15.50;99.90
4828;DHT22;2428;48.732;9.148;2023-03-23T10:57:27;15.90;99.90
4828;DHT22;2428;48.732;9.148;2023-03-23T11:02:44;16.20;99.90
4828;DHT22;2428;48.732;9.148;2023-03-23T11:05:21;16.20;99.90
4828;DHT22;2428;48.732;9.148;2023-03-23T11:07:55;16.20;99.90
4828;DHT22;2428;48.732;9.148;2023-03-23T11:10:34;16.10;99.90
4828;DHT22;2428;48.732;9.148;2023-03-23T11:13:00;16.10;99.90
4828;DHT22;2428;48.732;9.148;2023-03-23T11:15:34;15.80;99.90
4828;DHT22;2428;48.732;9.148;2023-03-23T11:18:08;15.70;99.90
4828;DHT22;2428;48.732;9.148;2023-03-23T11:20:37;15.60;99.90
4828;DHT22;2428;48.732;9.148;2023-03-23T11:23:18;15.60;99.90
4828;DHT22;2428;48.732;9.148;2023-03-23T11:26:16;15.70;99.90
4828;DHT22;2428;48.732;9.148;2023-03-23T11:32:10;15.60;99.90
4828;DHT22;2428;48.732;9.148;2023-03-23T11:34:42;15.50;99.90
4828;DHT22;2428;48.732;9.148;2023-03-23T11:37:13;15.50;99.90
4828;DHT22;2428;48.732;9.148;2023-03-23T11:39:48;15.50;99.90
4828;DHT22;2428;48.732;9.148;2023-03-23T11:42:26;15.50;99.90
4828;DHT22;2428;48.732;9.148;2023-03-23T11:45:35;15.70;99.90
4828;DHT22;2428;48.732;9.148;2023-03-23T11:50:52;16.00;99.90
4828;DHT22;2428;48.732;9.148;2023-03-23T11:56:25;16.00;99.90
4828;DHT22;2428;48.732;9.148;2023-03-23T11:58:53;15.90;99.90
4828;DHT22;2428;48.732;9.148;2023-03-23T12:10:21;15.90;99.90
4828;DHT22;2428;48.732;9.148;2023-03-23T12:24:01;15.60;99.90
4828;DHT22;2428;48.732;9.148;2023-03-23T12:26:34;15.70;99.90
4828;DHT22;2428;48.732;9.148;2023-03-23T12:29:28;15.70;99.90
4828;DHT22;2428;48.732;9.148;2023-03-23T12:43:34;15.70;99.90
4828;DHT22;2428;48.732;9.148;2023-03-23T12:48:55;15.90;99.90
4828;DHT22;2428;48.732;9.148;2023-03-23T12:54:21;16.10;99.90
4828;DHT22;2428;48.732;9.148;2023-03-23T13:02:34;16.30;99.90
4828;DHT22;2428;48.732;9.148;2023-03-23T13:10:49;16.20;99.90
4828;DHT22;2428;48.732;9.148;2023-03-23T13:13:39;16.10;99.90
4828;DHT22;2428;48.732;9.148;2023-03-23T13:16:24;16.10;99.90
4828;DHT22;2428;48.732;9.148;2023-03-23T13:21:32;16.10;99.90
4828;DHT22;2428;48.732;9.148;2023-03-23T13:24:03;16.10;99.90
4828;DHT22;2428;48.732;9.148;2023-03-23T13:26:30;16.10;99.90
4828;DHT22;2428;48.732;9.148;2023-03-23T13:29:05;16.20;99.90
4828;DHT22;2428;48.732;9.148;2023-03-23T13:31:36;16.30;99.90
4828;DHT22;2428;48.732;9.148;2023-03-23T13:36:39;16.30;99.90
4828;DHT22;2428;48.732;9.148;2023-03-23T13:39:17;16.20;99.90
4828;DHT22;2428;48.732;9.148;2023-03-23T13:41:49;16.20;99.90
4828;DHT22;2428;48.732;9.148;2023-03-23T13:44:26;16.20;99.90
4828;DHT22;2428;48.732;9.148;2023-03-23T13:49:51;16.20;99.90
4828;DHT22;2428;48.732;9.148;2023-03-23T13:52:21;16.20;99.90
4828;DHT22;2428;48.732;9.148;2023-03-23T13:54:47;16.20;99.90
4828;DHT22;2428;48.732;9.148;2023-03-23T13:57:32;16.30;99.90
4828;DHT22;2428;48.732;9.148;2023-03-23T14:00:08;16.30;99.90
4828;DHT22;2428;48.732;9.148;2023-03-23T14:02:39;16.30;99.90
4828;DHT22;2428;48.732;9.148;2023-03-23T14:06:00;16.30;99.90
4828;DHT22;2428;48.732;9.148;2023-03-23T14:10:57;16.30;99.90
4828;DHT22;2428;48.732;9.148;2023-03-23T14:14:04;16.30;99.90
4828;DHT22;2428;48.732;9.148;2023-03-23T14:16:39;16.20;99.90
4828;DHT22;2428;48.732;9.148;2023-03-23T14:19:25;16.20;99.90
4828;DHT22;2428;48.732;9.148;2023-03-23T14:21:55;16.30;99.90
4828;DHT22;2428;48.732;9.148;2023-03-23T14:24:28;16.30;99.90
4828;DHT22;2428;48.732;9.148;2023-03-23T14:29:38;16.30;99.90
4828;DHT22;2428;48.732;9.148;2023-03-23T14:32:06;16.20;99.90
4828;DHT22;2428;48.732;9.148;2023-03-23T14:34:34;16.20;99.90
4828;DHT22;2428;48.732;9.148;2023-03-23T14:37:00;16.20;99.90
4828;DHT22;2428;48.732;9.148;2023-03-23T14:39:32;16.20;99.90
4828;DHT22;2428;48.732;9.148;2023-03-23T14:42:13;16.20;99.90
4828;DHT22;2428;48.732;9.148;2023-03-23T14:44:48;16.20;99.90
4828;DHT22;2428;48.732;9.148;2023-03-23T14:47:24;16.20;99.90
4828;DHT22;2428;48.732;9.148;2023-03-23T14:49:55;16.20;99.90
4828;DHT22;2428;48.732;9.148;2023-03-23T14:52:23;16.20;99.90
4828;DHT22;2428;48.732;9.148;2023-03-23T14:54:49;16.20;99.90
4828;DHT22;2428;48.732;9.148;2023-03-23T14:57:26;16.30;99.90
4828;DHT22;2428;48.732;9.148;2023-03-23T14:59:52;16.30;99.90
4828;DHT22;2428;48.732;9.148;2023-03-23T15:02:23;16.30;99.90
4828;DHT22;2428;48.732;9.148;2023-03-23T15:04:54;16.30;99.90
4828;DHT22;2428;48.732;9.148;2023-03-23T15:07:25;16.40;99.90
4828;DHT22;2428;48.732;9.148;2023-03-23T15:09:52;16.40;99.90
4828;DHT22;2428;48.732;9.148;2023-03-23T15:12:26;16.40;99.90
4828;DHT22;2428;48.732;9.148;2023-03-23T15:15:07;16.40;99.90
4828;DHT22;2428;48.732;9.148;2023-03-23T15:17:45;16.40;99.90
4828;DHT22;2428;48.732;9.148;2023-03-23T15:22:50;16.30;99.90
4828;DHT22;2428;48.732;9.148;2023-03-23T15:25:37;16.30;99.90
4828;DHT22;2428;48.732;9.148;2023-03-23T15:28:21;16.30;99.90
4828;DHT22;2428;48.732;9.148;2023-03-23T15:31:00;16.30;99.90
4828;DHT22;2428;48.732;9.148;2023-03-23T15:33:26;16.30;99.90
4828;DHT22;2428;48.732;9.148;2023-03-23T15:35:54;16.30;99.90
4828;DHT22;2428;48.732;9.148;2023-03-23T15:38:23;16.20;99.90
4828;DHT22;2428;48.732;9.148;2023-03-23T15:40:52;16.20;99.90
4828;DHT22;2428;48.732;9.148;2023-03-23T15:48:17;16.10;99.90
4828;DHT22;2428;48.732;9.148;2023-03-23T15:50:46;16.10;99.90
4828;DHT22;2428;48.732;9.148;2023-03-23T15:55:54;16.00;99.90
4828;DHT22;2428;48.732;9.148;2023-03-23T15:58:20;16.00;99.90
4828;DHT22;2428;48.732;9.148;2023-03-23T16:00:46;16.00;99.90
4828;DHT22;2428;48.732;9.148;2023-03-23T16:03:19;15.90;99.90
4828;DHT22;2428;48.732;9.148;2023-03-23T16:05:46;15.90;99.90
4828;DHT22;2428;48.732;9.148;2023-03-23T16:08:12;15.90;99.90
4828;DHT22;2428;48.732;9.148;2023-03-23T16:10:37;15.80;99.90
4828;DHT22;2428;48.732;9.148;2023-03-23T16:13:03;15.80;99.90
4828;DHT22;2428;48.732;9.148;2023-03-23T16:15:30;15.70;99.90
4828;DHT22;2428;48.732;9.148;2023-03-23T16:17:55;15.70;99.90
4828;DHT22;2428;48.732;9.148;2023-03-23T16:20:22;15.70;99.90
4828;DHT22;2428;48.732;9.148;2023-03-23T16:22:49;15.70;99.90
4828;DHT22;2428;48.732;9.148;2023-03-23T16:25:16;15.60;99.90
4828;DHT22;2428;48.732;9.148;2023-03-23T16:27:43;15.60;99.90
4828;DHT22;2428;48.732;9.148;2023-03-23T16:30:18;15.60;99.90
4828;DHT22;2428;48.732;9.148;2023-03-23T16:32:45;15.60;99.90
4828;DHT22;2428;48.732;9.148;2023-03-23T16:35:11;15.60;99.90
4828;DHT22;2428;48.732;9.148;2023-03-23T16:37:37;15.50;99.90
4828;DHT22;2428;48.732;9.148;2023-03-23T16:40:04;15.50;99.90
4828;DHT22;2428;48.732;9.148;2023-03-23T16:42:30;15.50;99.90
4828;DHT22;2428;48.732;9.148;2023-03-23T16:44:56;15.50;99.90
4828;DHT22;2428;48.732;9.148;2023-03-23T16:47:21;15.40;99.90
4828;DHT22;2428;48.732;9.148;2023-03-23T16:49:51;15.40;99.90
4828;DHT22;2428;48.732;9.148;2023-03-23T16:52:18;15.40;99.90
4828;DHT22;2428;48.732;9.148;2023-03-23T16:54:43;15.30;99.90
4828;DHT22;2428;48.732;9.148;2023-03-23T16:57:09;15.30;99.90
4828;DHT22;2428;48.732;9.148;2023-03-23T16:59:35;15.30;99.90
4828;DHT22;2428;48.732;9.148;2023-03-23T17:02:01;15.30;99.90
4828;DHT22;2428;48.732;9.148;2023-03-23T17:04:31;15.30;99.90
4828;DHT22;2428;48.732;9.148;2023-03-23T17:06:57;15.30;99.90
4828;DHT22;2428;48.732;9.148;2023-03-23T17:09:26;15.30;99.90
4828;DHT22;2428;48.732;9.148;2023-03-23T17:11:52;15.20;99.90
4828;DHT22;2428;48.732;9.148;2023-03-23T17:14:18;15.20;99.90
4828;DHT22;2428;48.732;9.148;2023-03-23T17:16:44;15.20;99.90
4828;DHT22;2428;48.732;9.148;2023-03-23T17:19:10;15.20;99.90
4828;DHT22;2428;48.732;9.148;2023-03-23T17:21:35;15.20;99.90
4828;DHT22;2428;48.732;9.148;2023-03-23T17:24:02;15.20;99.90
4828;DHT22;2428;48.732;9.148;2023-03-23T17:26:28;15.20;99.90
4828;DHT22;2428;48.732;9.148;2023-03-23T17:28:53;15.20;99.90
4828;DHT22;2428;48.732;9.148;2023-03-23T17:31:19;15.10;99.90
4828;DHT22;2428;48.732;9.148;2023-03-23T17:33:44;15.10;99.90
4828;DHT22;2428;48.732;9.148;2023-03-23T17:36:10;15.10;99.90
4828;DHT22;2428;48.732;9.148;2023-03-23T17:38:36;15.10;99.90
4828;DHT22;2428;48.732;9.148;2023-03-23T17:41:01;15.10;99.90
4828;DHT22;2428;48.732;9.148;2023-03-23T17:43:30;15.00;99.90
4828;DHT22;2428;48.732;9.148;2023-03-23T17:45:56;15.00;99.90
4828;DHT22;2428;48.732;9.148;2023-03-23T17:48:22;15.00;99.90
4828;DHT22;2428;48.732;9.148;2023-03-23T17:50:48;15.00;99.90
4828;DHT22;2428;48.732;9.148;2023-03-23T17:53:14;15.00;99.90
4828;DHT22;2428;48.732;9.148;2023-03-23T17:55:40;15.00;99.90
4828;DHT22;2428;48.732;9.148;2023-03-23T17:58:08;14.90;99.90
4828;DHT22;2428;48.732;9.148;2023-03-23T18:00:33;14.90;99.90
4828;DHT22;2428;48.732;9.148;2023-03-23T18:02:59;14.90;99.90
4828;DHT22;2428;48.732;9.148;2023-03-23T18:05:25;14.90;99.90
4828;DHT22;2428;48.732;9.148;2023-03-23T18:07:52;14.90;99.90
4828;DHT22;2428;48.732;9.148;2023-03-23T18:10:18;14.80;99.90
4828;DHT22;2428;48.732;9.148;2023-03-23T18:12:44;14.80;99.90
4828;DHT22;2428;48.732;9.148;2023-03-23T18:15:10;14.80;99.90
4828;DHT22;2428;48.732;9.148;2023-03-23T18:17:36;14.80;99.90
4828;DHT22;2428;48.732;9.148;2023-03-23T18:20:03;14.70;99.90
4828;DHT22;2428;48.732;9.148;2023-03-23T18:22:29;14.80;99.90